^^

..:: Storico WU ::..




Lo storico viene creato da WUnderground con i dati che la stazione Meteomincio invia al loro server. L' aggiornamento viene fatto ogni 5 minuti circa, tuttavia possono esserci intervalli pi¨ ampi a causa di errori, interruzioni di servizio o problemi nell' invio tramite FTP.


Storico stazione MeteoMincio
Giorno Sommario per Agosto 20, 2022 Unità:  Inglese    Metrico   Entrambi
Giorno Settimana Mese Anno
  Max: Min: Media:
Temperatura: 89.6 °F 64.4 °F 76.3 °F
Dew Point: 69.6 °F 61.7 °F 65.8 °F
Umidità: 94% 40.1% 73%
Velocità vento: 8mph 0mph 2.8mph
Raffica: 12mph - -
Direzione- - WSW
Pressione: 29.9 in 29.8 in -
Precipitazioni: 0 in    
 
 
Tabulato Dati per Agosto 20, 2022
Ora Temperatura Dew Point Pressione Direzione Velocità vento Raffica Umidità Intensità pioggia (oraria) Info solare Situazione
00:04 69.1 °F 66 °F 29.8 in NW 1.1 mph 3 mph 90% 0 in 0 W/m2
00:09 68.9 °F 65.8 °F 29.8 in WNW 0.4 mph 2.3 mph 90% 0 in 0 W/m2
00:14 68.7 °F 65.7 °F 29.8 in Calm   1.2 mph 90.4% 0 in 0 W/m2
00:19 68.4 °F 65.7 °F 29.8 in Calm     91.1% 0 in 0 W/m2
00:24 68 °F 65.5 °F 29.9 in NW 0.3 mph 1.2 mph 91.3% 0 in 0 W/m2
00:28 68 °F 65.3 °F 29.9 in NW 0.4 mph 1.2 mph 91.4% 0 in 0 W/m2
00:34 67.8 °F 65.3 °F 29.9 in Calm   1 mph 92% 0 in 0 W/m2
00:39 67.6 °F 65.3 °F 29.9 in Calm     92% 0 in 0 W/m2
00:44 67.5 °F 65.1 °F 29.9 in Calm     92% 0 in 0 W/m2
00:49 67.5 °F 65.1 °F 29.9 in Calm     92% 0 in 0 W/m2
00:54 67.3 °F 65.1 °F 29.9 in Calm   1 mph 92.5% 0 in 0 W/m2
00:59 66.9 °F 64.8 °F 29.9 in West 1.1 mph 2.3 mph 92.7% 0 in 0 W/m2
01:04 66.6 °F 64.4 °F 29.9 in WSW 2.4 mph 4 mph 93% 0 in 0 W/m2
01:09 66.4 °F 64.4 °F 29.9 in WSW 1.4 mph 4 mph 93% 0 in 0 W/m2
01:14 66.6 °F 64.6 °F 29.9 in WSW 0.1 mph 3 mph 93% 0 in 0 W/m2
01:19 66.7 °F 64.6 °F 29.9 in WSW 0.4 mph 1.2 mph 93% 0 in 0 W/m2
01:24 66.7 °F 64.8 °F 29.9 in WSW 0.1 mph 1.2 mph 93% 0 in 0 W/m2
01:29 66.7 °F 64.6 °F 29.8 in WSW 0.2 mph 2.3 mph 93% 0 in 0 W/m2
01:34 66.6 °F 64.4 °F 29.9 in WSW 0.1 mph 2 mph 93% 0 in 0 W/m2
01:39 66.6 °F 64.4 °F 29.9 in South 1.2 mph 3.5 mph 93.1% 0 in 0 W/m2
01:44 66.6 °F 64.6 °F 29.9 in South 1.4 mph 3.5 mph 93.7% 0 in 0 W/m2
01:49 66.6 °F 64.8 °F 29.9 in SSW 0.9 mph 3 mph 93.9% 0 in 0 W/m2
01:54 66.4 °F 64.2 °F 29.9 in WSW 1.7 mph 3.5 mph 93% 0 in 0 W/m2
01:59 66.2 °F 64 °F 29.9 in West 1.6 mph 3.5 mph 93% 0 in 0 W/m2
02:04 66.2 °F 64.2 °F 29.8 in WSW 1.8 mph 4 mph 93.6% 0 in 0 W/m2
02:09 66.2 °F 64.2 °F 29.8 in WSW 2.2 mph 4 mph 93.4% 0 in 0 W/m2
02:14 65.8 °F 63.9 °F 29.8 in WSW 2.5 mph 3.5 mph 93% 0 in 0 W/m2
02:19 65.7 °F 63.7 °F 29.8 in West 2.5 mph 3.5 mph 93% 0 in 0 W/m2
02:24 65.7 °F 63.5 °F 29.8 in WSW 2.1 mph 3.5 mph 93% 0 in 0 W/m2
02:29 65.7 °F 63.5 °F 29.9 in SW 2.2 mph 3.5 mph 93% 0 in 0 W/m2
02:34 65.7 °F 63.5 °F 29.9 in SW 1.1 mph 3 mph 93% 0 in 0 W/m2
02:39 65.7 °F 63.5 °F 29.9 in SW 0.1 mph 2 mph 93% 0 in 0 W/m2
02:44 65.5 °F 63.5 °F 29.9 in WSW 1.6 mph 3.5 mph 93% 0 in 0 W/m2
02:49 65.3 °F 63.1 °F 29.9 in WSW 2.4 mph 4 mph 93% 0 in 0 W/m2
02:54 65.3 °F 63.1 °F 29.9 in WSW 3 mph 4 mph 93% 0 in 0 W/m2
02:59 65.3 °F 63.3 °F 29.9 in WSW 2.8 mph 4 mph 93% 0 in 0 W/m2
03:04 65.3 °F 63.3 °F 29.9 in West 2.4 mph 4 mph 93% 0 in 0 W/m2
03:09 65.3 °F 63.1 °F 29.9 in West 1.9 mph 3.5 mph 93% 0 in 0 W/m2
03:14 65.5 °F 63.3 °F 29.9 in West 0.6 mph 3.5 mph 93% 0 in 0 W/m2
03:19 65.5 °F 63.3 °F 29.9 in West 0.7 mph 3 mph 93% 0 in 0 W/m2
03:24 65.5 °F 63.3 °F 29.9 in Calm   2 mph 93% 0 in 0 W/m2
03:29 65.3 °F 63.1 °F 29.9 in Calm     93% 0 in 0 W/m2
03:34 65.3 °F 63.1 °F 29.8 in Calm     93% 0 in 0 W/m2
03:39 65.1 °F 63.1 °F 29.8 in Calm     93% 0 in 0 W/m2
03:44 65.1 °F 63 °F 29.8 in Calm     93% 0 in 0 W/m2
03:49 64.9 °F 62.8 °F 29.8 in WSW 1.2 mph 3.5 mph 93% 0 in 0 W/m2
03:54 64.8 °F 62.8 °F 29.9 in WSW 3.5 mph 5 mph 93.5% 0 in 0 W/m2
03:59 64.4 °F 62.6 °F 29.9 in WSW 4.3 mph 6 mph 93.9% 0 in 0 W/m2
04:04 64.4 °F 62.6 °F 29.9 in West 4.5 mph 6 mph 94% 0 in 0 W/m2
04:09 64.4 °F 62.6 °F 29.9 in West 3.6 mph 6 mph 94% 0 in 0 W/m2
04:14 64.4 °F 62.6 °F 29.8 in WSW 2.9 mph 5 mph 94% 0 in 0 W/m2
04:19 64.4 °F 62.6 °F 29.8 in WSW 3.5 mph 5 mph 94% 0 in 0 W/m2
04:24 64.4 °F 62.6 °F 29.8 in WSW 3.1 mph 4 mph 94% 0 in 0 W/m2
04:29 64.4 °F 62.6 °F 29.8 in WSW 3.4 mph 5 mph 94% 0 in 0 W/m2
04:34 64.4 °F 62.6 °F 29.8 in WSW 3.4 mph 5 mph 94% 0 in 0 W/m2
04:39 64.6 °F 62.8 °F 29.8 in West 3.5 mph 5 mph 94% 0 in 0 W/m2
04:44 64.8 °F 63 °F 29.8 in West 3 mph 5 mph 94% 0 in 0 W/m2
04:49 64.9 °F 63 °F 29.8 in WNW 2.7 mph 5 mph 93.3% 0 in 0 W/m2
04:54 64.9 °F 62.8 °F 29.8 in West 1.6 mph 4 mph 93% 0 in 0 W/m2
04:59 64.9 °F 63 °F 29.8 in SW 1.8 mph 4 mph 93% 0 in 0 W/m2
05:04 64.9 °F 62.8 °F 29.8 in SW 3.2 mph 4 mph 93% 0 in 0 W/m2
05:09 64.8 °F 62.6 °F 29.8 in SW 2.5 mph 4 mph 93% 0 in 0 W/m2
05:14 64.6 °F 62.4 °F 29.8 in WSW 2.5 mph 4 mph 93% 0 in 0 W/m2
05:19 64.6 °F 62.6 °F 29.8 in West 2.4 mph 4 mph 93% 0 in 0 W/m2
05:24 64.8 °F 62.6 °F 29.8 in West 2.5 mph 5 mph 93% 0 in 0 W/m2
05:29 64.8 °F 62.6 °F 29.8 in West 3.1 mph 5 mph 93% 0 in 0 W/m2
05:34 64.6 °F 62.4 °F 29.8 in WSW 4.5 mph 6 mph 93% 0 in 0 W/m2
05:39 64.6 °F 62.6 °F 29.8 in WSW 3.8 mph 6 mph 93% 0 in 0 W/m2
05:44 64.8 °F 62.6 °F 29.8 in WSW 2.6 mph 6 mph 93% 0 in 0 W/m2
05:49 64.8 °F 62.6 °F 29.8 in West 2.1 mph 4 mph 93% 0 in 0 W/m2
05:54 64.8 °F 62.6 °F 29.8 in West 3.2 mph 5 mph 93% 0 in 0 W/m2
05:59 65.1 °F 63 °F 29.8 in West 3.9 mph 5 mph 93% 0 in 0 W/m2
06:04 65.3 °F 63.3 °F 29.8 in WNW 3.1 mph 6 mph 93% 0 in 0 W/m2
06:09 65.5 °F 63.3 °F 29.8 in WNW 3.6 mph 6 mph 93% 0 in 0 W/m2
06:14 65.5 °F 63.3 °F 29.8 in West 3.2 mph 6 mph 93% 0 in 0 W/m2
06:19 65.3 °F 63.3 °F 29.8 in West 3.5 mph 5 mph 93% 0 in 0 W/m2
06:24 65.3 °F 63.1 °F 29.8 in WNW 3.9 mph 5.8 mph 93% 0 in 0 W/m2
06:29 65.3 °F 63.1 °F 29.8 in WNW 3.5 mph 6 mph 93% 0 in 0 W/m2
06:34 65.3 °F 63.1 °F 29.8 in WNW 3.4 mph 6 mph 93% 0 in 5 W/m2
06:39 65.1 °F 63 °F 29.8 in WNW 3.4 mph 6 mph 93% 0 in 5 W/m2
06:44 64.9 °F 63 °F 29.8 in West 2 mph 6 mph 93% 0 in 9 W/m2
06:49 64.9 °F 63 °F 29.8 in West 1.5 mph 5 mph 93% 0 in 9 W/m2
06:54 64.9 °F 62.8 °F 29.8 in West 2.3 mph 4 mph 93% 0 in 11 W/m2
06:59 64.8 °F 62.8 °F 29.8 in WSW 2.8 mph 5 mph 93% 0 in 11 W/m2
07:04 64.8 °F 62.6 °F 29.8 in WSW 2.7 mph 5 mph 93% 0 in 11 W/m2
07:09 64.6 °F 62.6 °F 29.8 in WSW 2.9 mph 5 mph 93% 0 in 12 W/m2
07:14 64.8 °F 62.8 °F 29.8 in WSW 3.3 mph 5 mph 93.8% 0 in 14 W/m2
07:19 64.8 °F 63 °F 29.8 in WSW 3 mph 5 mph 93.6% 0 in 39 W/m2
07:24 64.9 °F 63 °F 29.8 in WSW 3.3 mph 6 mph 93.5% 0 in 56 W/m2
07:29 65.3 °F 63.5 °F 29.8 in WSW 3.7 mph 6 mph 94% 0 in 65 W/m2
07:34 65.7 °F 63.5 °F 29.8 in WSW 2.9 mph 6 mph 93.2% 0 in 79 W/m2
07:39 66 °F 63.9 °F 29.8 in WSW 2.1 mph 6 mph 93% 0 in 91 W/m2
07:44 66.2 °F 64.2 °F 29.9 in West 2.1 mph 4 mph 93% 0 in 105 W/m2
07:49 66.6 °F 64.4 °F 29.9 in WNW 1.4 mph 3 mph 93% 0 in 120 W/m2
07:54 66.9 °F 64.8 °F 29.9 in West 1.7 mph 5 mph 92.4% 0 in 132 W/m2
07:59 67.3 °F 64.9 °F 29.9 in West 3.5 mph 5 mph 92% 0 in 146 W/m2
08:04 67.8 °F 65.3 °F 29.9 in WNW 2.4 mph 5 mph 92% 0 in 160 W/m2
08:09 68 °F 65.3 °F 29.9 in WNW 3 mph 5 mph 91.2% 0 in 176 W/m2
08:14 68.4 °F 65.7 °F 29.9 in West 3.5 mph 5 mph 91% 0 in 192 W/m2
08:19 68.5 °F 65.8 °F 29.9 in West 3.2 mph 5 mph 90.6% 0 in 206 W/m2
08:24 68.9 °F 65.8 °F 29.9 in WSW 3 mph 6 mph 90% 0 in 223 W/m2
08:29 69.3 °F 66 °F 29.9 in WSW 4.6 mph 8.1 mph 90% 0 in 239 W/m2
08:34 69.4 °F 66.2 °F 29.9 in West 5.2 mph 8.1 mph 89.3% 0 in 251 W/m2
08:39 70 °F 66.6 °F 29.9 in West 3.9 mph 8.1 mph 89% 0 in 267 W/m2
08:44 70.3 °F 66.9 °F 29.9 in West 4.9 mph 8.1 mph 89% 0 in 279 W/m2
08:49 70.7 °F 67.1 °F 29.9 in West 5.3 mph 8.1 mph 88.1% 0 in 294 W/m2
08:54 71.2 °F 67.3 °F 29.9 in West 4.5 mph 8 mph 87.2% 0 in 309 W/m2
08:59 71.4 °F 67.3 °F 29.9 in West 5.7 mph 10.4 mph 86.8% 0 in 322 W/m2
09:04 71.6 °F 67.3 °F 29.9 in WNW 5.9 mph 12 mph 86% 0 in 336 W/m2
09:09 71.8 °F 67.5 °F 29.9 in West 5.8 mph 12 mph 85.9% 0 in 350 W/m2
09:14 72.3 °F 67.6 °F 29.9 in West 6.4 mph 9.2 mph 85.3% 0 in 366 W/m2
09:19 72.7 °F 67.8 °F 29.9 in West 5.7 mph 9.2 mph 85% 0 in 380 W/m2
09:24 73.2 °F 68.2 °F 29.9 in WNW 5.3 mph 9 mph 84% 0 in 394 W/m2
09:29 73.8 °F 68 °F 29.9 in WNW 5.7 mph 9.2 mph 82.1% 0 in 410 W/m2
09:34 74.5 °F 68.2 °F 29.9 in WNW 5.3 mph 9.2 mph 81% 0 in 420 W/m2
09:39 75 °F 68.5 °F 29.9 in WNW 5.7 mph 9.2 mph 80.4% 0 in 438 W/m2
09:44 75.4 °F 68.4 °F 29.9 in West 6.2 mph 9.2 mph 78.7% 0 in 448 W/m2
09:49 75.7 °F 68.2 °F 29.9 in WNW 7 mph 10.4 mph 77.5% 0 in 464 W/m2
09:54 76.1 °F 68.5 °F 29.9 in WNW 5.2 mph 10 mph 77.1% 0 in 480 W/m2
09:59 76.6 °F 68.5 °F 29.9 in WNW 6.4 mph 10.4 mph 76.3% 0 in 490 W/m2
10:04 77 °F 69.4 °F 29.9 in West 7.5 mph 11 mph 77.6% 0 in 503 W/m2
10:09 77.2 °F 69.3 °F 29.9 in West 6.2 mph 12 mph 76.5% 0 in 517 W/m2
10:14 77.5 °F 68.7 °F 29.9 in West 7.1 mph 12 mph 74.5% 0 in 527 W/m2
10:19 77.9 °F 68.7 °F 29.9 in West 7.8 mph 12 mph 73.7% 0 in 543 W/m2
10:24 77.9 °F 68.4 °F 29.9 in WNW 8 mph 12 mph 72.5% 0 in 554 W/m2
10:29 78.4 °F 68.5 °F 29.9 in WNW 7.9 mph 12 mph 71.6% 0 in 568 W/m2
10:34 78.8 °F 68.7 °F 29.9 in West 7.6 mph 12 mph 71.3% 0 in 613 W/m2
10:39 78.6 °F 68.2 °F 29.9 in West 7 mph 12 mph 70.6% 0 in 652 W/m2
10:44 78.6 °F 68.5 °F 29.9 in West 5.3 mph 12 mph 71% 0 in 664 W/m2
10:49 79 °F 68.7 °F 29.9 in West 6.3 mph 11 mph 70.9% 0 in 643 W/m2
10:54 79 °F 68.9 °F 29.9 in West 6.7 mph 12 mph 71.2% 0 in 548 W/m2
10:59 78.6 °F 68.2 °F 29.9 in WNW 5.8 mph 12 mph 70.3% 0 in 279 W/m2
11:04 79.2 °F 68.4 °F 29.9 in West 5.5 mph 9.2 mph 69.8% 0 in 689 W/m2
11:09 79.9 °F 68.5 °F 29.9 in WNW 6.6 mph 10.4 mph 68.4% 0 in 703 W/m2
11:14 80.6 °F 68.5 °F 29.9 in WNW 6.9 mph 10.4 mph 66.9% 0 in 684 W/m2
11:19 80.8 °F 67.8 °F 29.9 in WNW 7.3 mph 10.4 mph 64.7% 0 in 679 W/m2
11:24 81 °F 68.4 °F 29.9 in WNW 6.1 mph 10.4 mph 65.3% 0 in 686 W/m2
11:29 81.5 °F 68.5 °F 29.9 in WNW 6 mph 10 mph 64.9% 0 in 693 W/m2
11:34 81.5 °F 69.3 °F 29.9 in WNW 5.1 mph 10.4 mph 66.3% 0 in 700 W/m2
11:39 81.7 °F 69.4 °F 29.9 in West 5.7 mph 10 mph 66.3% 0 in 707 W/m2
11:44 81.9 °F 68.7 °F 29.9 in West 5.9 mph 9 mph 64.8% 0 in 640 W/m2
11:49 82.2 °F 68.9 °F 29.9 in West 6.4 mph 9.2 mph 64.3% 0 in 533 W/m2
11:54 82.4 °F 68.7 °F 29.9 in West 6.9 mph 11.5 mph 63.7% 0 in 714 W/m2
11:59 82.9 °F 69.3 °F 29.9 in WNW 4.5 mph 12 mph 63.7% 0 in 738 W/m2
12:04 83.8 °F 69.3 °F 29.9 in NW 2.5 mph 7 mph 61.7% 0 in 747 W/m2
12:09 84.2 °F 68.4 °F 29.9 in WNW 3.3 mph 9 mph 59.2% 0 in 754 W/m2
12:14 84.2 °F 67.5 °F 29.9 in WNW 5.6 mph 9.2 mph 57.6% 0 in 761 W/m2
12:19 84.2 °F 67.5 °F 29.9 in NW 3.6 mph 9 mph 57% 0 in 770 W/m2
12:24 84.4 °F 67.1 °F 29.9 in WNW 4 mph 10.4 mph 56.1% 0 in 773 W/m2
12:29 84.4 °F 67.5 °F 29.9 in WNW 3.5 mph 10 mph 56.8% 0 in 777 W/m2
12:34 85.1 °F 67.8 °F 29.9 in NW 4.2 mph 7 mph 56.5% 0 in 780 W/m2
12:39 85.5 °F 67.8 °F 29.9 in WNW 3.3 mph 7 mph 55.8% 0 in 786 W/m2
12:44 85.3 °F 66.7 °F 29.9 in WNW 2.1 mph 6 mph 53.7% 0 in 791 W/m2
12:49 85.6 °F 67.6 °F 29.9 in NW 3.9 mph 10.4 mph 55.1% 0 in 793 W/m2
12:54 85.5 °F 67.5 °F 29.9 in NW 3.1 mph 10 mph 55.1% 0 in 796 W/m2
12:59 85.3 °F 68.4 °F 29.9 in West 3.4 mph 8 mph 57.1% 0 in 802 W/m2
13:04 85.6 °F 69.1 °F 29.9 in West 4.2 mph 8.1 mph 57.9% 0 in 803 W/m2
13:09 85.5 °F 68.4 °F 29.9 in SW 2.7 mph 8 mph 56.7% 0 in 803 W/m2
13:14 85.5 °F 68 °F 29.9 in WSW 2.7 mph 7 mph 56.4% 0 in 807 W/m2
13:19 85.5 °F 68.4 °F 29.8 in West 4.5 mph 9.2 mph 57% 0 in 807 W/m2
13:24 86.2 °F 69.3 °F 29.8 in WSW 3.2 mph 9 mph 57.2% 0 in 809 W/m2
13:29 86.2 °F 68.9 °F 29.8 in West 4.9 mph 8.1 mph 56.2% 0 in 807 W/m2
13:34 86.4 °F 68.7 °F 29.8 in West 5 mph 8.1 mph 56% 0 in 812 W/m2
13:39 86.7 °F 69.3 °F 29.8 in West 4.3 mph 10 mph 56.2% 0 in 810 W/m2
13:44 86.7 °F 69.3 °F 29.8 in West 5 mph 10.4 mph 56.4% 0 in 810 W/m2
13:49 86.4 °F 69.1 °F 29.8 in West 5.5 mph 10 mph 56.5% 0 in 805 W/m2
13:54 86.2 °F 68.9 °F 29.8 in West 4.5 mph 9 mph 56.3% 0 in 805 W/m2
13:59 86.7 °F 68.4 °F 29.8 in West 4.5 mph 10.4 mph 54.5% 0 in 802 W/m2
14:04 86.5 °F 68.4 °F 29.8 in West 3.9 mph 7 mph 54.7% 0 in 803 W/m2
14:09 87.1 °F 68.9 °F 29.8 in WNW 4.4 mph 8.1 mph 55.1% 0 in 805 W/m2
14:14 86.9 °F 68.7 °F 29.8 in West 4.1 mph 8.1 mph 55% 0 in 796 W/m2
14:19 86.9 °F 69.3 °F 29.8 in SW 5 mph 10.4 mph 55.9% 0 in 796 W/m2
14:24 86.7 °F 68.7 °F 29.8 in WSW 4.2 mph 10 mph 55.2% 0 in 796 W/m2
14:29 87.1 °F 68.7 °F 29.8 in WSW 4.7 mph 8.1 mph 54.7% 0 in 793 W/m2
14:34 87.1 °F 68.7 °F 29.8 in West 6.5 mph 10.4 mph 54.5% 0 in 789 W/m2
14:39 87.4 °F 67.8 °F 29.8 in West 4.6 mph 10 mph 52.3% 0 in 784 W/m2
14:44 87.3 °F 67.6 °F 29.8 in WNW 3.1 mph 8 mph 52% 0 in 779 W/m2
14:49 88 °F 67.5 °F 29.8 in West 3.9 mph 7 mph 50.8% 0 in 773 W/m2
14:54 87.8 °F 67.3 °F 29.8 in West 3.8 mph 6.9 mph 50.9% 0 in 773 W/m2
14:59 88 °F 67.6 °F 29.8 in WNW 3.9 mph 7 mph 51.3% 0 in 766 W/m2
15:04 88 °F 66 °F 29.8 in West 1.8 mph 7 mph 48.3% 0 in 756 W/m2
15:09 88 °F 66.9 °F 29.8 in West 1.7 mph 6 mph 50% 0 in 752 W/m2
15:14 88 °F 67.5 °F 29.8 in WSW 2.9 mph 6 mph 50.7% 0 in 747 W/m2
15:19 88.2 °F 67.5 °F 29.8 in West 4.3 mph 7 mph 50.5% 0 in 740 W/m2
15:24 88.3 °F 67.8 °F 29.8 in SW 4.2 mph 9.2 mph 50.8% 0 in 733 W/m2
15:29 88.3 °F 67.1 °F 29.8 in SSW 5.2 mph 9.2 mph 49.5% 0 in 729 W/m2
15:34 88.3 °F 66.6 °F 29.8 in SSW 4.5 mph 9 mph 48.8% 0 in 724 W/m2
15:39 88.3 °F 66 °F 29.8 in SSW 4.2 mph 7 mph 47.7% 0 in 715 W/m2
15:44 88.3 °F 65.8 °F 29.8 in WSW 3.8 mph 7 mph 47.6% 0 in 707 W/m2
15:49 88.9 °F 66.4 °F 29.8 in WSW 4.1 mph 6 mph 47.4% 0 in 696 W/m2
15:54 88.5 °F 65.1 °F 29.8 in WSW 3.2 mph 6 mph 45.9% 0 in 687 W/m2
15:59 88.5 °F 65.3 °F 29.8 in WSW 1.7 mph 6 mph 46.3% 0 in 679 W/m2
16:04 88.3 °F 64.6 °F 29.8 in South 2.7 mph 6 mph 45.4% 0 in 670 W/m2
16:09 88.3 °F 64.2 °F 29.8 in SW 2.9 mph 6 mph 44.8% 0 in 663 W/m2
16:14 88.9 °F 64.8 °F 29.8 in WSW 2.7 mph 6 mph 44.9% 0 in 650 W/m2
16:19 88.5 °F 64.2 °F 29.8 in SW 2.5 mph 5 mph 44.5% 0 in 638 W/m2
16:24 88.5 °F 64.4 °F 29.8 in NW 1.3 mph 4 mph 45.1% 0 in 626 W/m2
16:29 88.9 °F 64.6 °F 29.8 in SW 3.7 mph 7 mph 44.6% 0 in 617 W/m2
16:34 88.5 °F 64.8 °F 29.8 in WSW 2.6 mph 7 mph 45.4% 0 in 608 W/m2
16:39 88.2 °F 64.8 °F 29.8 in WSW 1.2 mph 6 mph 46.1% 0 in 594 W/m2
16:44 88.5 °F 64 °F 29.8 in WSW 3.1 mph 6 mph 44.4% 0 in 584 W/m2
16:49 88.9 °F 63.5 °F 29.8 in WSW 2.3 mph 6 mph 43% 0 in 573 W/m2
16:54 88.9 °F 63.7 °F 29.8 in WSW 3 mph 6 mph 43.4% 0 in 561 W/m2
16:59 89.1 °F 62.2 °F 29.8 in SW 3.1 mph 6 mph 41.1% 0 in 547 W/m2
17:04 88.7 °F 63 °F 29.8 in WSW 2.9 mph 6 mph 42.3% 0 in 533 W/m2
17:09 88.9 °F 62.6 °F 29.8 in West 2.4 mph 6 mph 41.7% 0 in 522 W/m2
17:14 89.2 °F 62.4 °F 29.8 in SW 2.6 mph 5 mph 40.8% 0 in 510 W/m2
17:19 89.4 °F 62.4 °F 29.8 in WSW 2.8 mph 5 mph 40.7% 0 in 494 W/m2
17:24 89.2 °F 62.6 °F 29.8 in WSW 3 mph 5 mph 41.2% 0 in 482 W/m2
17:29 89.2 °F 63.1 °F 29.8 in West 2.2 mph 5 mph 42% 0 in 466 W/m2
17:34 89.6 °F 62.2 °F 29.8 in WNW 1.9 mph 4 mph 40.1% 0 in 452 W/m2
17:39 89.6 °F 62.8 °F 29.8 in WSW 0.7 mph 3.5 mph 41% 0 in 438 W/m2
17:44 89.1 °F 62.2 °F 29.8 in WSW 2.3 mph 5 mph 41% 0 in 425 W/m2
17:49 88.7 °F 62.6 °F 29.8 in WSW 2.7 mph 5 mph 42.1% 0 in 410 W/m2
17:54 88.7 °F 62.1 °F 29.8 in WSW 0.7 mph 5 mph 41.2% 0 in 35 W/m2
17:59 88.7 °F 61.7 °F 29.8 in WSW 1.2 mph 3.5 mph 40.6% 0 in 364 W/m2
18:04 88.7 °F 62.1 °F 29.8 in NNW 1.1 mph 3 mph 41.2% 0 in 360 W/m2
18:09 88.3 °F 62.8 °F 29.8 in East 1.2 mph 2.3 mph 42.9% 0 in 345 W/m2
18:14 88.5 °F 63.9 °F 29.8 in East 1.7 mph 4 mph 44.2% 0 in 330 W/m2
18:19 88 °F 62.4 °F 29.8 in North 1.9 mph 4 mph 42.4% 0 in 318 W/m2
18:24 88 °F 64 °F 29.8 in ENE 1.4 mph 3.5 mph 45.1% 0 in 306 W/m2
18:29 87.8 °F 64 °F 29.8 in East 1.9 mph 4 mph 45.5% 0 in 288 W/m2
18:34 87.4 °F 64.8 °F 29.8 in East 2 mph 4 mph 46.9% 0 in 271 W/m2
18:39 87.3 °F 66.4 °F 29.8 in East 1.9 mph 4 mph 50.1% 0 in 257 W/m2
18:44 87.1 °F 66.6 °F 29.8 in ENE 1.9 mph 4 mph 50.7% 0 in 241 W/m2
18:49 86.9 °F 66.4 °F 29.8 in East 2 mph 5 mph 50.8% 0 in 229 W/m2
18:54 86.7 °F 66.7 °F 29.8 in ENE 3 mph 5 mph 51.6% 0 in 211 W/m2
18:59 86.5 °F 66.7 °F 29.8 in ENE 3.4 mph 5 mph 51.8% 0 in 195 W/m2
19:04 86.5 °F 66.6 °F 29.8 in ENE 2.7 mph 5 mph 51.8% 0 in 178 W/m2
19:09 86.2 °F 66.6 °F 29.8 in ENE 2 mph 4 mph 52% 0 in 158 W/m2
19:14 86.2 °F 66.4 °F 29.8 in NE 1.3 mph 3.5 mph 51.7% 0 in 139 W/m2
19:19 86 °F 64.9 °F 29.8 in NNE 2.3 mph 4 mph 49.6% 0 in 121 W/m2
19:24 85.8 °F 64.4 °F 29.8 in NNE 2.2 mph 4 mph 49.1% 0 in 111 W/m2
19:29 85.6 °F 65.8 °F 29.8 in NE 2.1 mph 3.5 mph 51.7% 0 in 91 W/m2
19:34 84.9 °F 67.5 °F 29.8 in NE 1.6 mph 3.5 mph 56% 0 in 76 W/m2
19:39 84 °F 68.9 °F 29.8 in NE 0.2 mph 3 mph 60.6% 0 in 62 W/m2
19:44 83.3 °F 69.4 °F 29.8 in Calm   1.2 mph 63.2% 0 in 46 W/m2
19:49 82.8 °F 69.6 °F 29.8 in Calm   1 mph 64.6% 0 in 16 W/m2
19:54 82.2 °F 69.6 °F 29.8 in Calm     65.8% 0 in 14 W/m2
19:59 82 °F 69.4 °F 29.8 in Calm   1.2 mph 65.6% 0 in 12 W/m2
20:04 81.5 °F 69.6 °F 29.8 in Calm   1 mph 67% 0 in 11 W/m2
20:09 80.8 °F 68.4 °F 29.8 in West 1.3 mph 3.5 mph 65.9% 0 in 9 W/m2
20:14 80.4 °F 67.6 °F 29.8 in WSW 1.8 mph 3 mph 65.2% 0 in 5 W/m2
20:19 80.2 °F 68.4 °F 29.8 in WSW 1.4 mph 3 mph 66.9% 0 in 0 W/m2
20:24 79.9 °F 68.7 °F 29.8 in WSW 0.1 mph 2 mph 69.1% 0 in 0 W/m2
20:29 79.2 °F 69.1 °F 29.8 in Calm   1 mph 71% 0 in 0 W/m2
20:34 78.8 °F 68.9 °F 29.8 in Calm     72% 0 in 0 W/m2
20:39 78.3 °F 68.7 °F 29.8 in Calm     72.6% 0 in 0 W/m2
20:44 77.9 °F 68.7 °F 29.8 in Calm     73.5% 0 in 0 W/m2
20:49 77.5 °F 67.5 °F 29.8 in Calm     71.2% 0 in 0 W/m2
20:54 77.4 °F 67.1 °F 29.8 in Calm     70.5% 0 in 0 W/m2
20:59 77.4 °F 67.8 °F 29.8 in Calm     72.6% 0 in 0 W/m2
21:04 77 °F 68 °F 29.8 in Calm     73.8% 0 in 0 W/m2
21:09 76.8 °F 68.4 °F 29.8 in Calm     75% 0 in 0 W/m2
21:14 76.5 °F 68.2 °F 29.8 in Calm     75.4% 0 in 0 W/m2
21:19 76.3 °F 68.2 °F 29.8 in Calm     76% 0 in 0 W/m2
21:24 76.3 °F 68.2 °F 29.8 in Calm     75.8% 0 in 0 W/m2
21:29 76.1 °F 67.6 °F 29.8 in Calm     75.2% 0 in 0 W/m2
21:34 75.6 °F 68 °F 29.8 in West 0.6 mph 3 mph 77.1% 0 in 0 W/m2
21:39 75.6 °F 68.4 °F 29.8 in WNW 2 mph 4 mph 78.4% 0 in 0 W/m2
21:44 75.7 °F 67.8 °F 29.8 in WNW 2.3 mph 4 mph 76.6% 0 in 0 W/m2
21:49 75.7 °F 67.6 °F 29.8 in WNW 1.1 mph 4 mph 76% 0 in 0 W/m2
21:54 75.7 °F 67.8 °F 29.8 in NW 1.4 mph 3.5 mph 76.2% 0 in 0 W/m2
21:59 75.6 °F 67.6 °F 29.8 in NW 1.4 mph 3 mph 76.3% 0 in 0 W/m2
22:04 75.4 °F 67.3 °F 29.8 in NNW 1.7 mph 3.5 mph 76.1% 0 in 0 W/m2
22:09 75.4 °F 67.6 °F 29.8 in NNW 1.7 mph 3.5 mph 76.6% 0 in 0 W/m2
22:14 75.6 °F 67.8 °F 29.8 in NNW 1.9 mph 3.5 mph 77% 0 in 0 W/m2
22:19 75.7 °F 67.6 °F 29.8 in NNW 1.4 mph 3.5 mph 76.2% 0 in 0 W/m2
22:24 75.7 °F 67.6 °F 29.8 in NNW 1.9 mph 3.5 mph 76% 0 in 0 W/m2
22:29 75.6 °F 67.6 °F 29.8 in NNW 1.3 mph 3.5 mph 76.2% 0 in 0 W/m2
22:34 75.6 °F 67.5 °F 29.8 in NNW 1.1 mph 3 mph 76% 0 in 0 W/m2
22:39 75.6 °F 67.8 °F 29.8 in NW 1.6 mph 3.5 mph 76.7% 0 in 0 W/m2
22:44 75.2 °F 67.5 °F 29.8 in NW 0.7 mph 3.5 mph 76.7% 0 in 0 W/m2
22:49 75.2 °F 67.6 °F 29.8 in Calm   3 mph 77.2% 0 in 0 W/m2
22:54 74.7 °F 67.6 °F 29.8 in NNW 0.1 mph 1.2 mph 78.5% 0 in 0 W/m2
22:59 74.1 °F 67.5 °F 29.8 in North 1 mph 2.3 mph 79.8% 0 in 0 W/m2
23:03 73.8 °F 67.5 °F 29.8 in North 0.3 mph 2.3 mph 81% 0 in 0 W/m2
23:09 73.4 °F 67.5 °F 29.8 in North 0.2 mph 2 mph 81.7% 0 in 0 W/m2
23:14 73.2 °F 67.5 °F 29.8 in NNE 1.4 mph 3.5 mph 82% 0 in 0 W/m2
23:19 73.6 °F 67.1 °F 29.8 in NNE 1.9 mph 3.5 mph 80.5% 0 in 0 W/m2
23:24 73.8 °F 66.9 °F 29.8 in NNE 1.7 mph 3.5 mph 79% 0 in 0 W/m2
23:29 73.8 °F 66.7 °F 29.8 in NNE 2.2 mph 4 mph 79% 0 in 0 W/m2
23:34 73.8 °F 66.7 °F 29.8 in NNE 2 mph 4 mph 79% 0 in 0 W/m2
23:39 73.8 °F 66.9 °F 29.8 in North 0.8 mph 3.5 mph 78.8% 0 in 0 W/m2
23:44 73.8 °F 66.9 °F 29.8 in North 1.5 mph 3.5 mph 79% 0 in 0 W/m2
23:49 73.8 °F 66.9 °F 29.8 in NNW 1.9 mph 5 mph 78.9% 0 in 0 W/m2
23:54 73.8 °F 66.6 °F 29.8 in North 2.9 mph 5 mph 78.2% 0 in 0 W/m2
23:59 73.8 °F 66.6 °F 29.8 in North 2.2 mph 5 mph 78% 0 in 0 W/m2
Stazione Meteorologica MeteoMincio Rivalta s/M (MN)
Con i complimenti di Weather Underground - 4 mb


METEO PILLOLE
Temperatura più bassa in un luogo abitato
Oymyakon (740m) - Russia
il 6 febbraio 1933 il termometro segnò -67.7°.

Do NOT follow this link or you will be banned from the site!